Time;durP1;ratioP1;P1;durP2;ratioP2;P2;SDS_P1;SDS_P2;PMS_P1;PMS_P2;Temp;Humidity;BMP_temperature;BMP_pressure;BME280_temperature;BME280_humidity;BME280_pressure;Samples;Min_cycle;Max_cycle;Signal;HPM_P1;HPM_P2
2020/12/05 00:02:22;;;;;;;51.65;28.95;;;4.50;99.90;;;;;;5070457;28;20394;-51
2020/12/05 00:04:48;;;;;;;54.17;29.42;;;4.50;99.90;;;;;;5068157;28;20395;-53
2020/12/05 00:07:14;;;;;;;54.20;28.85;;;4.50;99.90;;;;;;5071105;28;20785;-51
2020/12/05 00:09:40;;;;;;;56.55;30.75;;;4.50;99.90;;;;;;5070073;28;20405;-51
2020/12/05 00:12:08;;;;;;;52.08;28.50;;;4.50;99.90;;;;;;5070711;28;20382;-55
2020/12/05 00:14:34;;;;;;;59.30;29.80;;;4.50;99.90;;;;;;5069962;28;20378;-51
2020/12/05 00:17:00;;;;;;;53.85;29.50;;;4.50;99.90;;;;;;5071218;28;20478;-54
2020/12/05 00:19:26;;;;;;;55.33;29.30;;;4.50;99.90;;;;;;5069459;28;20397;-52
2020/12/05 00:21:56;;;;;;;56.10;30.50;;;4.50;99.90;;;;;;5071010;28;20386;-52
2020/12/05 00:24:23;;;;;;;53.22;29.17;;;4.50;99.90;;;;;;5070598;28;20394;-52
2020/12/05 00:26:53;;;;;;;52.55;28.80;;;4.60;99.90;;;;;;5070815;28;20421;-51
2020/12/05 00:29:20;;;;;;;53.42;30.05;;;4.60;99.90;;;;;;5070478;28;20393;-52
2020/12/05 00:31:50;;;;;;;54.88;30.27;;;4.60;99.90;;;;;;5071143;28;20413;-52
2020/12/05 00:34:17;;;;;;;54.23;30.43;;;4.60;99.90;;;;;;5070095;28;20398;-51
2020/12/05 00:36:43;;;;;;;57.95;29.00;;;4.60;99.90;;;;;;5070916;28;20746;-51
2020/12/05 00:39:10;;;;;;;56.78;30.27;;;4.60;99.90;;;;;;5069581;28;20559;-51
2020/12/05 00:41:36;;;;;;;55.17;29.27;;;4.60;99.90;;;;;;5070904;28;20404;-54
2020/12/05 00:44:03;;;;;;;58.17;31.03;;;4.70;99.90;;;;;;5070424;28;20386;-54
2020/12/05 00:46:29;;;;;;;57.92;30.38;;;4.70;99.90;;;;;;5069354;28;20413;-51
2020/12/05 00:48:55;;;;;;;55.60;31.20;;;4.70;99.90;;;;;;5071021;28;20390;-52
2020/12/05 00:51:21;;;;;;;56.00;30.13;;;4.70;99.90;;;;;;5069113;28;20906;-53
2020/12/05 00:53:47;;;;;;;55.90;30.75;;;4.70;99.90;;;;;;5069527;28;20397;-54
2020/12/05 00:56:22;;;;;;;55.85;30.35;;;4.70;99.90;;;;;;5070329;28;20382;-53
2020/12/05 00:58:48;;;;;;;57.80;30.03;;;4.70;99.90;;;;;;5070188;28;20401;-52
2020/12/05 01:01:16;;;;;;;57.85;30.42;;;4.70;99.90;;;;;;5070433;28;20862;-53
2020/12/05 01:03:42;;;;;;;54.80;29.92;;;4.70;99.90;;;;;;5064920;28;20425;-51
2020/12/05 01:06:14;;;;;;;57.77;30.20;;;4.70;99.90;;;;;;5070165;28;20414;-51
2020/12/05 01:08:42;;;;;;;56.40;30.65;;;4.70;99.90;;;;;;5070381;28;20409;-53
2020/12/05 01:11:14;;;;;;;58.13;30.60;;;4.70;99.90;;;;;;5068575;28;20382;-53
2020/12/05 01:13:40;;;;;;;59.53;30.95;;;4.70;99.90;;;;;;5069080;28;20393;-51
2020/12/05 01:16:10;;;;;;;55.67;30.50;;;4.80;99.90;;;;;;5070931;28;20398;-53
2020/12/05 01:18:36;;;;;;;55.25;29.50;;;4.80;99.90;;;;;;5070184;28;20387;-52
2020/12/05 01:21:02;;;;;;;59.03;30.63;;;4.70;99.90;;;;;;5070203;28;20401;-53
2020/12/05 01:23:28;;;;;;;55.40;30.08;;;4.70;99.90;;;;;;5070364;28;20394;-51
2020/12/05 01:25:54;;;;;;;55.50;29.73;;;4.70;99.90;;;;;;5070338;28;20406;-52
2020/12/05 01:28:21;;;;;;;56.63;29.52;;;4.80;99.90;;;;;;5069906;28;20873;-54
2020/12/05 01:30:47;;;;;;;53.67;29.75;;;4.80;99.90;;;;;;5070590;28;20390;-52
2020/12/05 01:33:13;;;;;;;59.47;30.57;;;4.80;99.90;;;;;;5069810;28;20394;-52
2020/12/05 01:35:39;;;;;;;53.88;29.92;;;4.70;99.90;;;;;;5071018;28;20378;-52
2020/12/05 01:38:05;;;;;;;55.38;29.70;;;4.70;99.90;;;;;;5068737;28;20400;-53
2020/12/05 01:40:31;;;;;;;53.85;29.23;;;4.70;99.90;;;;;;5070075;28;20382;-52
2020/12/05 01:42:57;;;;;;;57.72;29.88;;;4.70;99.90;;;;;;5070482;28;20386;-52
2020/12/05 01:45:24;;;;;;;55.03;29.30;;;4.70;99.90;;;;;;5069997;28;20401;-53
2020/12/05 01:47:50;;;;;;;58.30;30.65;;;4.70;99.90;;;;;;5070074;28;20402;-51
2020/12/05 01:50:16;;;;;;;59.90;30.15;;;4.60;99.90;;;;;;5069969;28;20381;-54
2020/12/05 01:52:43;;;;;;;58.20;30.45;;;4.70;99.90;;;;;;5070626;28;20405;-52
2020/12/05 01:55:10;;;;;;;57.92;31.00;;;4.60;99.90;;;;;;5068972;28;20742;-53
2020/12/05 01:57:36;;;;;;;58.10;30.92;;;4.60;99.90;;;;;;5070391;28;20404;-52
2020/12/05 02:00:03;;;;;;;55.05;30.15;;;4.60;99.90;;;;;;5070025;28;20501;-54
2020/12/05 02:02:29;;;;;;;59.53;31.23;;;4.70;99.90;;;;;;5068843;28;20405;-54
2020/12/05 02:05:26;;;;;;;60.15;31.48;;;4.70;99.90;;;;;;5068273;28;20389;-54
2020/12/05 02:07:55;;;;;;;57.88;31.02;;;4.70;99.90;;;;;;5054699;28;20417;-51
2020/12/05 02:10:26;;;;;;;62.58;31.08;;;4.70;99.90;;;;;;5055157;28;20397;-54
2020/12/05 02:13:36;;;;;;;58.67;30.83;;;4.70;99.90;;;;;;5072201;28;20386;-52
2020/12/05 02:16:02;;;;;;;56.42;30.77;;;4.70;99.90;;;;;;5071151;28;20596;-55
2020/12/05 02:18:28;;;;;;;61.80;31.60;;;4.70;99.90;;;;;;5054707;28;20394;-52
2020/12/05 02:20:56;;;;;;;59.00;31.52;;;4.70;99.90;;;;;;5055889;28;20397;-51
2020/12/05 02:23:24;;;;;;;62.03;30.80;;;4.70;99.90;;;;;;5072284;28;20386;-53
2020/12/05 02:25:52;;;;;;;60.45;31.10;;;4.70;99.90;;;;;;5073299;28;20401;-54
2020/12/05 02:28:19;;;;;;;58.88;31.00;;;4.70;99.90;;;;;;5071868;28;20395;-52
2020/12/05 02:30:46;;;;;;;58.17;30.33;;;4.70;99.90;;;;;;5072441;28;20382;-53
2020/12/05 02:33:13;;;;;;;57.00;31.15;;;4.70;99.90;;;;;;5072293;28;20394;-55
2020/12/05 02:35:39;;;;;;;55.05;30.05;;;4.70;99.90;;;;;;5073221;28;20881;-54
2020/12/05 02:38:11;;;;;;;56.90;30.42;;;4.70;99.90;;;;;;5073150;28;20382;-52
2020/12/05 02:40:38;;;;;;;56.53;30.17;;;4.70;99.90;;;;;;5072962;28;20394;-52
2020/12/05 02:43:04;;;;;;;55.38;29.52;;;4.70;99.90;;;;;;5071871;28;20405;-52
2020/12/05 02:45:33;;;;;;;59.65;30.65;;;4.70;99.90;;;;;;5071952;28;20895;-52
2020/12/05 02:48:01;;;;;;;55.67;30.30;;;4.70;99.90;;;;;;5071522;28;20401;-52
2020/12/05 02:50:29;;;;;;;58.00;30.80;;;4.70;99.90;;;;;;5072990;28;20394;-51
2020/12/05 02:52:56;;;;;;;57.00;30.80;;;4.70;99.90;;;;;;5072733;28;20390;-52
2020/12/05 02:55:22;;;;;;;63.25;31.95;;;4.70;99.90;;;;;;5072274;28;20386;-53
2020/12/05 02:57:48;;;;;;;51.13;28.90;;;4.70;99.90;;;;;;5072783;28;20387;-54
2020/12/05 03:00:17;;;;;;;55.83;29.58;;;4.80;99.90;;;;;;5072671;28;20385;-52
2020/12/05 03:02:43;;;;;;;56.22;30.15;;;4.80;99.90;;;;;;5072569;28;20754;-54
2020/12/05 03:05:09;;;;;;;58.22;31.60;;;4.70;99.90;;;;;;5072958;28;20397;-52
2020/12/05 03:07:36;;;;;;;58.97;30.05;;;4.70;99.90;;;;;;5070824;28;20874;-52
2020/12/05 03:10:02;;;;;;;57.53;30.40;;;4.70;99.90;;;;;;5072936;28;20402;-53
2020/12/05 03:12:28;;;;;;;56.63;30.35;;;4.70;99.90;;;;;;5070750;28;20871;-53
2020/12/05 03:14:54;;;;;;;59.53;30.77;;;4.80;99.90;;;;;;5072876;28;20413;-54
2020/12/05 03:17:21;;;;;;;57.33;31.08;;;4.70;99.90;;;;;;5071935;28;20393;-51
2020/12/05 03:19:47;;;;;;;57.85;30.83;;;4.70;99.90;;;;;;5072257;28;20394;-53
2020/12/05 03:22:13;;;;;;;62.28;32.17;;;4.70;99.90;;;;;;5071679;28;20412;-53
2020/12/05 03:24:39;;;;;;;60.83;30.77;;;4.70;99.90;;;;;;5071990;28;20417;-54
2020/12/05 03:27:05;;;;;;;60.10;31.30;;;4.70;99.90;;;;;;5066076;28;20923;-54
2020/12/05 03:29:31;;;;;;;58.38;30.20;;;4.70;99.90;;;;;;5070610;28;22101;-54
2020/12/05 03:34:23;;;;;;;57.35;30.50;;;4.70;99.90;;;;;;5071507;28;20385;-54
2020/12/05 03:36:50;;;;;;;58.67;31.27;;;4.70;99.90;;;;;;5071626;28;20402;-52
2020/12/05 03:39:16;;;;;;;59.03;31.73;;;4.70;99.90;;;;;;5072358;28;21553;-52
2020/12/05 03:41:42;;;;;;;59.00;30.17;;;4.70;99.90;;;;;;5071848;28;20406;-53
2020/12/05 03:44:09;;;;;;;58.83;30.23;;;4.70;99.90;;;;;;5071721;28;20397;-53
2020/12/05 03:46:35;;;;;;;56.30;30.33;;;4.70;99.90;;;;;;5071295;28;20996;-54
2020/12/05 03:49:01;;;;;;;58.97;30.80;;;4.80;99.90;;;;;;5071697;28;20394;-53
2020/12/05 03:51:27;;;;;;;56.53;30.25;;;4.80;99.90;;;;;;5071545;28;20386;-55
2020/12/05 03:53:53;;;;;;;59.15;30.92;;;4.80;99.90;;;;;;5071173;28;20394;-54
2020/12/05 03:56:20;;;;;;;52.83;29.25;;;4.80;99.90;;;;;;5071463;28;20386;-53
2020/12/05 03:58:46;;;;;;;56.67;29.50;;;4.80;99.90;;;;;;5071867;28;20402;-55
2020/12/05 04:01:12;;;;;;;50.17;28.02;;;4.90;99.90;;;;;;5071715;28;20386;-55
2020/12/05 04:03:39;;;;;;;54.63;29.23;;;4.90;99.90;;;;;;5070542;28;20908;-53
2020/12/05 04:06:05;;;;;;;52.33;28.67;;;4.90;99.90;;;;;;5071954;28;20386;-52
2020/12/05 04:08:31;;;;;;;57.53;29.23;;;4.90;99.90;;;;;;5070878;28;20460;-55
2020/12/05 04:10:57;;;;;;;53.33;28.85;;;4.90;99.90;;;;;;5071813;28;20727;-54
2020/12/05 04:13:23;;;;;;;50.90;28.58;;;4.90;99.90;;;;;;5071293;28;20390;-54
2020/12/05 04:15:49;;;;;;;54.10;28.73;;;4.90;99.90;;;;;;5071550;28;20394;-55
2020/12/05 04:18:16;;;;;;;54.15;29.65;;;4.90;99.90;;;;;;5070872;28;20401;-53
2020/12/05 04:20:42;;;;;;;56.90;29.52;;;4.90;99.90;;;;;;5070677;28;20417;-54
2020/12/05 04:23:09;;;;;;;52.80;29.08;;;4.90;99.90;;;;;;5071086;28;20390;-51
2020/12/05 04:25:35;;;;;;;50.23;28.73;;;4.90;99.90;;;;;;5071021;28;20386;-54
2020/12/05 04:28:01;;;;;;;55.63;30.07;;;4.90;99.90;;;;;;5071068;28;20413;-54
2020/12/05 04:30:27;;;;;;;52.93;29.00;;;4.90;99.90;;;;;;5070676;28;20386;-51
2020/12/05 04:32:53;;;;;;;54.00;28.60;;;4.90;99.90;;;;;;5069483;28;20398;-53
2020/12/05 04:35:20;;;;;;;52.90;28.63;;;4.90;99.90;;;;;;5070880;28;20393;-54
2020/12/05 04:37:46;;;;;;;53.63;28.05;;;4.90;99.90;;;;;;5070805;28;20413;-54
2020/12/05 04:40:12;;;;;;;50.65;27.52;;;4.90;99.90;;;;;;5070892;28;20402;-54
2020/12/05 04:42:48;;;;;;;53.67;28.60;;;4.90;99.90;;;;;;5070767;28;20694;-52
2020/12/05 04:45:14;;;;;;;52.10;29.00;;;4.90;99.90;;;;;;5070499;28;20866;-51
2020/12/05 04:47:41;;;;;;;55.83;29.65;;;4.80;99.90;;;;;;5070247;28;20960;-55
2020/12/05 04:50:08;;;;;;;53.67;29.77;;;4.80;99.90;;;;;;5069413;28;20382;-54
2020/12/05 04:52:40;;;;;;;51.63;28.95;;;4.80;99.90;;;;;;5070854;28;20382;-52
2020/12/05 04:55:06;;;;;;;56.05;28.67;;;4.80;99.90;;;;;;5071205;28;20395;-55
2020/12/05 04:57:41;;;;;;;54.53;28.35;;;4.90;99.90;;;;;;5070260;28;20381;-55
2020/12/05 05:00:07;;;;;;;50.72;29.10;;;4.90;99.90;;;;;;5070983;28;20781;-52
2020/12/05 05:02:35;;;;;;;49.95;27.80;;;4.90;99.90;;;;;;5069273;28;20886;-53
2020/12/05 05:05:01;;;;;;;53.50;28.42;;;5.00;99.90;;;;;;5069564;28;20405;-55
2020/12/05 05:07:27;;;;;;;57.58;29.92;;;4.90;99.90;;;;;;5070344;28;20418;-53
2020/12/05 05:10:01;;;;;;;55.40;29.80;;;5.00;99.90;;;;;;5052194;28;20386;-54
2020/12/05 05:12:32;;;;;;;55.83;29.10;;;4.90;99.90;;;;;;5070246;28;20401;-54
2020/12/05 05:14:58;;;;;;;53.53;28.30;;;4.90;99.90;;;;;;5070544;28;20877;-52
2020/12/05 05:17:25;;;;;;;53.92;29.73;;;4.90;99.90;;;;;;5069902;28;20394;-54
2020/12/05 05:19:51;;;;;;;50.63;28.90;;;4.90;99.90;;;;;;5070811;28;20409;-54
2020/12/05 05:22:21;;;;;;;56.55;30.73;;;4.90;99.90;;;;;;5070562;28;20398;-55
2020/12/05 05:25:06;;;;;;;55.95;30.02;;;4.90;99.90;;;;;;5070105;28;20469;-54
2020/12/05 05:27:32;;;;;;;53.73;29.57;;;5.00;99.90;;;;;;5069775;28;20413;-53
2020/12/05 05:30:15;;;;;;;53.08;28.13;;;4.90;99.90;;;;;;5069073;28;20382;-53
2020/12/05 05:32:47;;;;;;;51.78;29.60;;;5.00;99.90;;;;;;5069215;28;20393;-54
2020/12/05 05:35:14;;;;;;;54.73;30.13;;;4.90;99.90;;;;;;5069176;28;20390;-52
2020/12/05 05:37:40;;;;;;;54.87;30.03;;;5.00;99.90;;;;;;5069939;28;20412;-53
2020/12/05 05:40:09;;;;;;;55.92;29.67;;;4.90;99.90;;;;;;5069453;28;20381;-51
2020/12/05 05:42:36;;;;;;;56.60;30.33;;;4.90;99.90;;;;;;5070340;28;20389;-54
2020/12/05 05:45:24;;;;;;;55.28;30.98;;;4.90;99.90;;;;;;5072552;28;20398;-53
2020/12/05 05:48:00;;;;;;;57.00;29.50;;;4.90;99.90;;;;;;5074387;28;20417;-55
2020/12/05 05:50:35;;;;;;;56.80;30.38;;;4.90;99.90;;;;;;5072078;28;20728;-53
2020/12/05 05:53:07;;;;;;;59.35;31.52;;;4.90;99.90;;;;;;5073932;28;20386;-52
2020/12/05 05:55:44;;;;;;;56.17;30.60;;;4.90;99.90;;;;;;5074106;28;20704;-55
2020/12/05 05:58:11;;;;;;;54.60;30.77;;;4.90;99.90;;;;;;5072424;28;20389;-53
2020/12/05 06:00:44;;;;;;;53.87;30.00;;;5.00;99.90;;;;;;5073484;28;20390;-53
2020/12/05 06:03:24;;;;;;;56.60;31.17;;;5.00;99.90;;;;;;5073098;28;20861;-52
2020/12/05 06:05:55;;;;;;;59.22;30.73;;;5.00;99.90;;;;;;5073748;28;20390;-52
2020/12/05 06:08:25;;;;;;;58.27;31.40;;;5.00;99.90;;;;;;5073712;28;20410;-54
2020/12/05 06:11:02;;;;;;;59.88;32.55;;;4.90;99.90;;;;;;5073750;28;20401;-53
2020/12/05 06:13:32;;;;;;;61.35;32.58;;;4.90;99.90;;;;;;5072781;28;20743;-53
2020/12/05 06:15:58;;;;;;;57.70;30.58;;;4.90;99.90;;;;;;5073781;28;20406;-52
2020/12/05 06:18:25;;;;;;;58.60;30.60;;;5.00;99.90;;;;;;5072202;28;20386;-51
2020/12/05 06:20:51;;;;;;;57.05;30.50;;;5.00;99.90;;;;;;5073061;28;20421;-53
2020/12/05 06:23:41;;;;;;;54.60;29.70;;;5.00;99.90;;;;;;5064674;28;20391;-51
2020/12/05 06:26:08;;;;;;;56.78;31.00;;;5.00;99.90;;;;;;5053081;28;20384;-51
2020/12/05 06:28:39;;;;;;;56.80;31.65;;;4.90;99.90;;;;;;5070268;28;20406;-52
2020/12/05 06:31:05;;;;;;;59.88;31.50;;;4.80;99.90;;;;;;5056389;28;20398;-54
2020/12/05 06:33:42;;;;;;;60.35;31.77;;;4.80;99.90;;;;;;5070259;28;20389;-53
2020/12/05 06:36:26;;;;;;;58.85;32.03;;;4.70;99.90;;;;;;5071550;28;20394;-53
2020/12/05 06:39:16;;;;;;;56.25;31.23;;;4.70;99.90;;;;;;5074128;28;20400;-60
2020/12/05 06:41:43;;;;;;;60.42;31.77;;;4.70;99.90;;;;;;5061542;28;20380;-52
2020/12/05 06:44:13;;;;;;;58.42;31.35;;;4.60;99.90;;;;;;5052481;28;20393;-52
2020/12/05 06:46:58;;;;;;;62.60;32.50;;;4.60;99.90;;;;;;5053052;28;20383;-52
2020/12/05 06:49:36;;;;;;;59.47;31.80;;;4.60;99.90;;;;;;5073283;28;20925;-52
2020/12/05 06:52:24;;;;;;;62.20;32.28;;;4.50;99.90;;;;;;5073545;28;20378;-51
2020/12/05 06:54:54;;;;;;;61.90;32.37;;;4.40;99.90;;;;;;5072809;28;20377;-51
2020/12/05 06:57:27;;;;;;;63.15;32.60;;;4.40;99.90;;;;;;5070336;28;20378;-52
2020/12/05 07:00:12;;;;;;;65.03;33.13;;;4.30;99.90;;;;;;5062972;28;20384;-53
2020/12/05 07:02:38;;;;;;;68.80;34.65;;;4.30;99.90;;;;;;5067504;28;20743;-51
2020/12/05 07:05:16;;;;;;;69.32;34.00;;;4.20;99.90;;;;;;5073339;28;20370;-52
2020/12/05 07:07:44;;;;;;;67.35;34.33;;;4.30;99.90;;;;;;5059673;28;20404;-54
2020/12/05 07:10:11;;;;;;;62.03;32.83;;;4.30;99.90;;;;;;5052918;28;20387;-53
2020/12/05 07:12:37;;;;;;;66.50;34.15;;;4.20;99.90;;;;;;5070937;28;20855;-55
2020/12/05 07:15:26;;;;;;;74.40;36.22;;;4.10;99.90;;;;;;5073075;28;20398;-52
2020/12/05 07:17:53;;;;;;;71.22;35.40;;;4.20;99.90;;;;;;5072602;28;20397;-55
2020/12/05 07:20:19;;;;;;;72.10;36.65;;;4.10;99.90;;;;;;5073324;28;20374;-52
2020/12/05 07:22:49;;;;;;;72.65;36.85;;;4.00;99.90;;;;;;5072786;28;20886;-55
2020/12/05 07:25:15;;;;;;;76.22;36.35;;;4.00;99.90;;;;;;5059891;28;20385;-52
2020/12/05 07:27:42;;;;;;;71.00;35.60;;;4.10;99.90;;;;;;5072367;28;20424;-52
2020/12/05 07:30:08;;;;;;;63.72;34.58;;;4.10;99.90;;;;;;5072707;28;20386;-52
2020/12/05 07:32:35;;;;;;;68.63;34.50;;;4.10;99.90;;;;;;5071625;28;20909;-53
2020/12/05 07:35:03;;;;;;;67.47;35.03;;;4.10;99.90;;;;;;5072270;28;20397;-54
2020/12/05 07:37:29;;;;;;;65.85;33.95;;;4.10;99.90;;;;;;5061478;28;20388;-51
2020/12/05 07:39:55;;;;;;;70.60;35.60;;;4.00;99.90;;;;;;5052483;28;20729;-52
2020/12/05 07:42:22;;;;;;;71.07;35.78;;;3.90;99.90;;;;;;5068131;28;20909;-52
2020/12/05 07:44:48;;;;;;;74.68;36.88;;;3.90;99.90;;;;;;5072396;28;20731;-52
2020/12/05 07:47:18;;;;;;;76.67;37.43;;;3.90;99.90;;;;;;5072408;28;20397;-52
2020/12/05 07:49:51;;;;;;;74.95;36.90;;;3.80;99.90;;;;;;5071909;28;20523;-55
2020/12/05 07:52:21;;;;;;;76.82;37.28;;;3.80;99.90;;;;;;5072527;28;20374;-54
2020/12/05 07:55:07;;;;;;;72.47;36.17;;;3.90;99.90;;;;;;5071905;28;20378;-54
2020/12/05 07:57:34;;;;;;;77.60;37.25;;;3.90;99.90;;;;;;5072236;28;20778;-55
2020/12/05 08:00:03;;;;;;;75.15;36.40;;;3.90;99.90;;;;;;5070963;28;20382;-54
2020/12/05 08:02:54;;;;;;;73.55;36.33;;;3.90;99.90;;;;;;5071077;28;20420;-52
2020/12/05 08:05:35;;;;;;;70.93;35.70;;;3.90;99.90;;;;;;5072307;28;20370;-53
2020/12/05 08:08:02;;;;;;;69.80;34.22;;;4.00;99.90;;;;;;5055572;28;20411;-52
2020/12/05 08:10:32;;;;;;;66.32;33.90;;;4.00;99.90;;;;;;5052263;28;20498;-52
2020/12/05 08:13:21;;;;;;;62.58;33.10;;;4.10;99.90;;;;;;5069763;28;20381;-55
2020/12/05 08:15:50;;;;;;;60.03;31.20;;;4.10;99.90;;;;;;5071889;28;20924;-52
2020/12/05 08:18:18;;;;;;;57.17;30.87;;;4.20;99.90;;;;;;5070644;28;20838;-52
2020/12/05 08:20:45;;;;;;;58.40;31.30;;;4.20;99.90;;;;;;5069891;28;20414;-51
2020/12/05 08:23:28;;;;;;;58.25;30.13;;;4.30;99.90;;;;;;5070985;28;20386;-54
2020/12/05 08:26:02;;;;;;;56.55;29.48;;;4.20;99.90;;;;;;5069607;28;20406;-52
2020/12/05 08:28:30;;;;;;;53.55;29.23;;;4.30;99.90;;;;;;5070854;28;20397;-52
2020/12/05 08:30:56;;;;;;;54.70;28.37;;;4.30;99.90;;;;;;5071118;28;20382;-55
2020/12/05 08:33:22;;;;;;;53.87;28.47;;;4.30;99.90;;;;;;5068053;28;20389;-53
2020/12/05 08:35:48;;;;;;;49.38;27.15;;;4.30;99.90;;;;;;5070740;28;20393;-52
2020/12/05 08:38:22;;;;;;;51.40;28.03;;;4.40;99.90;;;;;;5070275;28;20393;-53
2020/12/05 08:41:00;;;;;;;48.10;26.88;;;4.40;99.90;;;;;;5070534;28;20440;-51
2020/12/05 08:43:26;;;;;;;48.97;26.95;;;4.40;99.90;;;;;;5069167;28;20775;-55
2020/12/05 08:45:53;;;;;;;51.80;27.27;;;4.50;99.90;;;;;;5070383;28;20715;-53
2020/12/05 08:48:19;;;;;;;47.03;25.50;;;4.50;99.90;;;;;;5070922;28;20748;-54
2020/12/05 08:50:46;;;;;;;51.88;26.30;;;4.50;99.90;;;;;;5070517;28;20373;-52
2020/12/05 08:53:14;;;;;;;48.10;26.77;;;4.50;99.90;;;;;;5071498;28;20385;-52
2020/12/05 08:55:45;;;;;;;51.35;26.80;;;4.60;99.90;;;;;;5070169;28;20386;-55
2020/12/05 08:58:11;;;;;;;48.25;26.27;;;4.60;99.90;;;;;;5070632;28;20386;-53
2020/12/05 09:00:38;;;;;;;46.27;25.10;;;4.60;99.90;;;;;;5070432;28;20927;-60
2020/12/05 09:03:17;;;;;;;47.05;25.88;;;4.60;99.90;;;;;;5067712;28;20389;-60
2020/12/05 09:05:47;;;;;;;47.03;25.23;;;4.70;99.90;;;;;;5070341;28;20716;-54
2020/12/05 09:08:18;;;;;;;42.27;24.10;;;4.70;99.90;;;;;;5070879;28;20497;-53
2020/12/05 09:10:44;;;;;;;42.75;23.50;;;4.70;99.90;;;;;;5070577;28;20480;-55
2020/12/05 09:13:10;;;;;;;43.10;23.63;;;4.70;99.90;;;;;;5070803;28;20394;-55
2020/12/05 09:15:50;;;;;;;40.95;23.73;;;4.80;99.90;;;;;;5070589;28;20382;-55
2020/12/05 09:18:16;;;;;;;42.95;23.95;;;4.80;99.90;;;;;;5070865;28;20453;-52
2020/12/05 09:20:42;;;;;;;44.95;25.10;;;4.80;99.90;;;;;;5074568;28;20401;-54
2020/12/05 09:23:08;;;;;;;45.20;25.05;;;4.80;99.90;;;;;;5074623;28;20390;-53
2020/12/05 09:25:36;;;;;;;43.03;23.95;;;4.80;99.90;;;;;;5073491;28;20394;-55
2020/12/05 09:28:12;;;;;;;42.35;24.23;;;4.80;99.90;;;;;;5074470;28;20417;-54
2020/12/05 09:30:38;;;;;;;42.92;23.92;;;4.80;99.90;;;;;;5072363;28;20400;-55
2020/12/05 09:33:17;;;;;;;44.53;25.17;;;4.80;99.90;;;;;;5072584;28;20412;-52
2020/12/05 09:35:44;;;;;;;46.42;25.20;;;4.80;99.90;;;;;;5073429;28;20470;-53
2020/12/05 09:38:11;;;;;;;44.60;25.40;;;4.80;99.90;;;;;;5074611;28;20432;-56
2020/12/05 09:40:37;;;;;;;45.83;26.35;;;4.70;99.90;;;;;;5074272;28;20381;-56
2020/12/05 09:43:03;;;;;;;49.28;26.45;;;4.70;99.90;;;;;;5074045;28;20901;-52
2020/12/05 09:45:29;;;;;;;50.03;28.20;;;4.70;99.90;;;;;;5073969;28;20807;-55
2020/12/05 09:48:01;;;;;;;46.70;26.55;;;4.70;99.90;;;;;;5074240;28;20406;-55
2020/12/05 09:50:28;;;;;;;50.67;28.10;;;4.70;99.90;;;;;;5074037;28;20386;-55
2020/12/05 09:52:54;;;;;;;46.05;26.50;;;4.70;99.90;;;;;;5072408;28;20402;-53
2020/12/05 09:55:20;;;;;;;50.55;27.35;;;4.70;99.90;;;;;;5073956;28;20390;-53
2020/12/05 09:57:46;;;;;;;50.60;27.03;;;4.80;99.90;;;;;;5073970;28;20395;-54
2020/12/05 10:00:13;;;;;;;46.05;26.20;;;4.90;99.90;;;;;;5074044;28;20378;-54
2020/12/05 10:02:39;;;;;;;47.13;26.08;;;4.90;99.90;;;;;;5072633;28;20762;-55
2020/12/05 10:05:06;;;;;;;41.30;24.17;;;5.00;99.90;;;;;;5072243;28;20383;-53
2020/12/05 10:07:32;;;;;;;42.60;23.73;;;5.10;99.90;;;;;;5074083;28;20462;-55
2020/12/05 10:09:58;;;;;;;45.70;23.83;;;5.10;99.90;;;;;;5073336;28;20394;-53
2020/12/05 10:12:24;;;;;;;41.05;23.40;;;5.20;99.90;;;;;;5073977;28;20397;-55
2020/12/05 10:14:51;;;;;;;41.33;24.05;;;5.30;99.90;;;;;;5073879;28;20386;-55
2020/12/05 10:17:17;;;;;;;41.70;23.23;;;5.40;99.90;;;;;;5073413;28;20394;-55
2020/12/05 10:19:43;;;;;;;40.47;23.90;;;5.40;99.90;;;;;;5073673;28;20378;-55
2020/12/05 10:22:09;;;;;;;40.65;23.25;;;5.50;99.90;;;;;;5073806;28;20905;-55
2020/12/05 10:24:35;;;;;;;39.85;22.77;;;5.60;99.90;;;;;;5073627;28;20393;-52
2020/12/05 10:27:01;;;;;;;42.08;23.10;;;5.70;99.90;;;;;;5073213;28;20885;-53
2020/12/05 10:29:29;;;;;;;37.83;19.48;;;5.80;99.90;;;;;;5074285;28;20218;-55
2020/12/05 10:31:55;;;;;;;34.38;19.25;;;5.90;99.90;;;;;;5073538;28;20185;-54
2020/12/05 10:34:21;;;;;;;34.45;17.38;;;6.00;99.90;;;;;;5074095;28;20186;-55
2020/12/05 10:36:47;;;;;;;33.30;16.85;;;6.10;99.90;;;;;;5074747;28;20194;-55
2020/12/05 10:39:14;;;;;;;37.30;17.70;;;6.30;99.90;;;;;;5074448;28;20166;-55
2020/12/05 10:41:40;;;;;;;33.08;16.88;;;6.30;99.90;;;;;;5073413;28;20178;-56
2020/12/05 10:44:08;;;;;;;36.30;17.80;;;6.30;99.90;;;;;;5074668;28;20206;-55
2020/12/05 10:46:42;;;;;;;32.00;16.92;;;6.30;99.90;;;;;;5074532;28;20184;-56
2020/12/05 10:49:08;;;;;;;32.72;15.57;;;6.20;99.90;;;;;;5074348;28;20198;-55
2020/12/05 10:51:35;;;;;;;38.17;21.13;;;6.10;99.90;;;;;;5073281;28;20393;-54
2020/12/05 10:54:01;;;;;;;42.33;22.42;;;6.10;99.90;;;;;;5071510;28;20401;-53
2020/12/05 10:56:27;;;;;;;36.92;22.30;;;6.10;99.90;;;;;;5072800;28;20387;-56
2020/12/05 10:58:53;;;;;;;36.55;22.38;;;6.00;99.90;;;;;;5072629;28;20394;-55
2020/12/05 11:01:19;;;;;;;41.60;22.58;;;6.00;99.90;;;;;;5073410;28;20394;-56
2020/12/05 11:03:46;;;;;;;40.70;23.35;;;6.00;99.90;;;;;;5071944;28;20409;-56
2020/12/05 11:06:18;;;;;;;40.25;24.42;;;5.90;99.90;;;;;;5073006;28;20386;-56
2020/12/05 11:08:44;;;;;;;43.27;23.60;;;5.90;99.90;;;;;;5063168;28;20755;-56
2020/12/05 11:11:10;;;;;;;41.38;23.75;;;6.00;99.90;;;;;;5072718;28;20893;-56
2020/12/05 11:13:36;;;;;;;39.63;22.67;;;6.00;99.90;;;;;;5072009;28;20398;-54
2020/12/05 11:16:02;;;;;;;42.25;23.70;;;6.10;99.90;;;;;;5070705;28;20408;-55
2020/12/05 11:18:28;;;;;;;42.05;23.35;;;6.10;99.90;;;;;;5072816;28;20477;-54
2020/12/05 11:20:54;;;;;;;36.35;22.00;;;6.10;99.90;;;;;;5072290;28;20386;-55
2020/12/05 11:23:21;;;;;;;40.75;23.63;;;6.10;99.90;;;;;;5072623;28;20877;-54
2020/12/05 11:25:47;;;;;;;40.10;23.92;;;6.20;99.90;;;;;;5072435;28;20397;-55
2020/12/05 11:28:13;;;;;;;41.50;24.25;;;6.10;99.90;;;;;;5072678;28;20414;-55
2020/12/05 11:30:39;;;;;;;40.90;24.67;;;6.10;99.90;;;;;;5072644;28;20882;-55
2020/12/05 11:33:05;;;;;;;39.67;23.00;;;6.00;99.90;;;;;;5071329;28;20910;-55
2020/12/05 11:35:31;;;;;;;41.25;24.23;;;6.00;99.90;;;;;;5070147;28;20921;-55
2020/12/05 11:37:57;;;;;;;45.15;25.63;;;6.00;99.90;;;;;;5072148;28;20393;-55
2020/12/05 11:40:24;;;;;;;43.10;24.50;;;5.90;99.90;;;;;;5072586;28;20398;-56
2020/12/05 11:42:50;;;;;;;45.33;24.70;;;5.80;99.90;;;;;;5071125;28;20409;-55
2020/12/05 11:45:16;;;;;;;42.35;24.10;;;5.80;99.90;;;;;;5072335;28;20409;-55
2020/12/05 11:47:42;;;;;;;48.10;24.00;;;5.70;99.90;;;;;;5071831;28;20393;-55
2020/12/05 11:50:08;;;;;;;43.55;24.17;;;5.70;99.90;;;;;;5071995;28;20436;-55
2020/12/05 11:52:34;;;;;;;46.13;25.50;;;5.50;99.90;;;;;;5072460;28;20707;-56
2020/12/05 11:55:00;;;;;;;45.38;25.33;;;5.50;99.90;;;;;;5071748;28;20395;-56
2020/12/05 11:57:27;;;;;;;46.42;25.17;;;5.40;99.90;;;;;;5071478;28;20393;-55
2020/12/05 11:59:56;;;;;;;44.47;25.02;;;5.40;99.90;;;;;;5070305;28;20383;-53
2020/12/05 12:02:22;;;;;;;42.97;24.77;;;5.40;99.90;;;;;;5070098;28;20410;-54
2020/12/05 12:04:48;;;;;;;43.70;25.83;;;5.40;99.90;;;;;;5071540;28;20393;-56
2020/12/05 12:07:14;;;;;;;42.13;24.67;;;5.40;99.90;;;;;;5072017;28;20394;-55
2020/12/05 12:09:40;;;;;;;45.00;24.67;;;5.40;99.90;;;;;;5070198;28;20736;-55
2020/12/05 12:12:07;;;;;;;44.60;24.30;;;5.40;99.90;;;;;;5069953;28;20400;-55
2020/12/05 12:14:33;;;;;;;46.07;24.77;;;5.40;99.90;;;;;;5071686;28;20755;-53
2020/12/05 12:16:59;;;;;;;41.35;23.90;;;5.30;99.90;;;;;;5071230;28;20446;-54
2020/12/05 12:19:25;;;;;;;42.28;23.67;;;5.30;99.90;;;;;;5071204;28;20398;-52
2020/12/05 12:21:51;;;;;;;43.80;23.27;;;5.30;99.90;;;;;;5071684;28;20406;-55
2020/12/05 12:24:17;;;;;;;40.80;23.67;;;5.30;99.90;;;;;;5070839;28;20379;-55
2020/12/05 12:26:47;;;;;;;41.38;23.83;;;5.30;99.90;;;;;;5071146;28;20413;-53
2020/12/05 12:29:15;;;;;;;41.33;23.45;;;5.20;99.90;;;;;;5070831;28;20428;-55
2020/12/05 12:31:41;;;;;;;42.75;23.65;;;5.20;99.90;;;;;;5065523;28;20384;-55
2020/12/05 12:34:07;;;;;;;40.60;23.45;;;5.20;99.90;;;;;;5069603;28;20398;-56
2020/12/05 12:36:34;;;;;;;40.53;23.23;;;5.20;99.90;;;;;;5067224;28;20381;-55
2020/12/05 12:39:00;;;;;;;43.47;23.83;;;5.20;99.90;;;;;;5067937;28;20401;-55
2020/12/05 12:41:26;;;;;;;42.73;24.33;;;5.20;99.90;;;;;;5069611;28;20394;-56
2020/12/05 12:43:56;;;;;;;41.90;23.08;;;5.20;99.90;;;;;;5069643;28;20386;-54
2020/12/05 12:46:23;;;;;;;38.23;22.60;;;5.30;99.90;;;;;;5068781;28;20398;-55